Time;durP1;ratioP1;P1;durP2;ratioP2;P2;SDS_P1;SDS_P2;PMS_P1;PMS_P2;Temp;Humidity;BMP_temperature;BMP_pressure;BME280_temperature;BME280_humidity;BME280_pressure;Samples;Min_cycle;Max_cycle;Signal;HPM_P1;HPM_P2
2021/12/13 00:02:40;;;;;;;15.82;7.07;;;11.90;85.40;;;;;;5051981;28;20044;-76
2021/12/13 00:05:15;;;;;;;14.95;7.65;;;11.90;85.40;;;;;;5052995;28;20021;-76
2021/12/13 00:07:43;;;;;;;15.13;7.28;;;11.80;85.40;;;;;;5054618;28;20033;-76
2021/12/13 00:10:21;;;;;;;14.80;7.10;;;11.90;85.70;;;;;;5049053;28;20026;-76
2021/12/13 00:13:15;;;;;;;13.60;7.25;;;11.80;85.90;;;;;;5034570;28;20377;-76
2021/12/13 00:15:54;;;;;;;12.70;7.68;;;11.80;85.90;;;;;;5044531;28;20060;-76
2021/12/13 00:18:28;;;;;;;15.93;8.05;;;11.80;85.90;;;;;;5035286;28;20040;-76
2021/12/13 00:21:12;;;;;;;14.98;7.90;;;11.80;85.70;;;;;;5038510;28;20171;-76
2021/12/13 00:23:49;;;;;;;13.35;6.28;;;11.80;86.00;;;;;;5037417;28;20032;-76
2021/12/13 00:26:37;;;;;;;13.88;8.07;;;11.80;86.30;;;;;;5038265;28;20081;-76
2021/12/13 00:29:16;;;;;;;15.82;8.13;;;11.80;86.40;;;;;;5047431;28;20041;-76
2021/12/13 00:31:50;;;;;;;11.98;7.93;;;11.80;86.00;;;;;;5048405;28;20025;-76
2021/12/13 00:34:28;;;;;;;14.60;8.55;;;11.80;86.40;;;;;;5060656;28;20089;-76
2021/12/13 00:36:56;;;;;;;14.50;8.52;;;11.80;86.30;;;;;;5078160;28;20490;-75
2021/12/13 00:39:29;;;;;;;21.88;9.70;;;11.80;86.50;;;;;;5078358;28;20072;-76
2021/12/13 00:41:55;;;;;;;18.58;10.55;;;11.70;86.40;;;;;;5076414;28;20024;-76
2021/12/13 00:44:31;;;;;;;16.75;8.77;;;11.70;86.80;;;;;;5040873;28;20040;-76
2021/12/13 00:47:02;;;;;;;17.15;9.73;;;11.70;86.50;;;;;;5038086;28;20048;-76
2021/12/13 00:49:31;;;;;;;17.10;11.00;;;11.60;86.70;;;;;;5036929;28;20048;-75
2021/12/13 00:51:58;;;;;;;17.70;10.88;;;11.60;87.00;;;;;;5038009;28;20037;-76
2021/12/13 00:54:29;;;;;;;19.67;10.63;;;11.60;87.10;;;;;;5037981;28;20039;-76
2021/12/13 00:56:58;;;;;;;19.08;10.13;;;11.50;87.10;;;;;;5036292;28;20076;-76
2021/12/13 00:59:48;;;;;;;19.13;9.00;;;11.70;87.00;;;;;;5070044;28;20125;-76
2021/12/13 01:02:26;;;;;;;15.20;9.50;;;11.60;86.70;;;;;;5043857;28;20450;-76
2021/12/13 01:05:00;;;;;;;17.02;8.52;;;11.60;86.90;;;;;;5037408;28;20104;-76
2021/12/13 01:08:03;;;;;;;14.45;7.75;;;11.70;86.90;;;;;;5053101;28;20026;-76
2021/12/13 01:10:48;;;;;;;14.05;8.60;;;11.60;87.00;;;;;;5037839;28;20132;-76
2021/12/13 01:13:40;;;;;;;15.70;8.32;;;11.60;86.90;;;;;;5048092;28;20036;-76
2021/12/13 01:22:12;;;;;;;18.40;7.78;;;11.60;86.90;;;;;;5050615;28;20029;-76
2021/12/13 01:27:27;;;;;;;19.83;8.73;;;11.80;86.70;;;;;;5037264;28;20071;-76
2021/12/13 01:29:53;;;;;;;17.17;9.15;;;11.80;86.80;;;;;;5037029;28;20026;-76
2021/12/13 01:32:19;;;;;;;18.30;9.43;;;11.80;86.40;;;;;;5037515;28;20030;-76
2021/12/13 01:34:46;;;;;;;18.40;9.60;;;11.90;86.20;;;;;;5058743;28;20035;-76
2021/12/13 01:37:15;;;;;;;18.27;9.43;;;11.90;86.30;;;;;;5075796;28;20028;-76
2021/12/13 01:39:47;;;;;;;17.40;10.25;;;11.80;86.10;;;;;;5037800;28;20072;-76
2021/12/13 01:42:20;;;;;;;21.33;9.05;;;11.90;86.20;;;;;;5037281;28;20029;-76
2021/12/13 01:44:54;;;;;;;15.57;8.48;;;11.90;86.10;;;;;;5036839;28;20017;-76
2021/12/13 01:47:29;;;;;;;16.05;9.25;;;11.90;85.90;;;;;;5037246;28;20025;-76
2021/12/13 01:50:16;;;;;;;15.93;9.30;;;11.90;86.00;;;;;;5037110;28;20105;-76
2021/12/13 01:52:42;;;;;;;14.10;8.05;;;11.90;85.90;;;;;;5037097;28;20402;-76
2021/12/13 01:55:16;;;;;;;16.88;8.32;;;11.90;86.00;;;;;;5037179;28;20037;-76
2021/12/13 02:03:48;;;;;;;13.73;7.20;;;11.90;86.00;;;;;;5057045;28;20027;-76
2021/12/13 02:06:36;;;;;;;12.77;7.65;;;11.90;85.90;;;;;;5043519;28;20029;-76
2021/12/13 02:09:09;;;;;;;13.02;6.82;;;11.90;86.00;;;;;;5036709;28;20036;-76
2021/12/13 02:11:36;;;;;;;11.82;6.75;;;11.90;85.80;;;;;;5036665;28;20029;-76
2021/12/13 02:14:11;;;;;;;15.50;6.93;;;11.80;86.00;;;;;;5036171;28;20025;-76
2021/12/13 02:19:57;;;;;;;12.80;7.30;;;11.70;86.40;;;;;;5036565;28;20052;-76
2021/12/13 02:22:39;;;;;;;13.57;7.72;;;11.70;86.80;;;;;;5036548;28;20029;-75
2021/12/13 02:25:17;;;;;;;18.05;7.43;;;11.70;86.70;;;;;;5045068;28;20498;-76
2021/12/13 02:27:52;;;;;;;14.77;7.53;;;11.70;86.70;;;;;;5056249;28;20506;-76
2021/12/13 02:30:28;;;;;;;13.98;7.82;;;11.60;86.90;;;;;;5041263;28;20507;-76
2021/12/13 02:32:54;;;;;;;15.35;8.40;;;11.70;87.00;;;;;;5035876;28;20167;-76
2021/12/13 02:35:22;;;;;;;13.55;8.10;;;11.70;87.00;;;;;;5061145;28;20025;-76
2021/12/13 02:37:49;;;;;;;13.30;7.55;;;11.70;86.90;;;;;;5036368;28;20041;-76
2021/12/13 02:40:17;;;;;;;10.43;6.60;;;11.70;86.80;;;;;;5036219;28;20060;-76
2021/12/13 02:42:44;;;;;;;13.95;8.18;;;11.70;86.90;;;;;;5033494;28;20029;-76
2021/12/13 02:45:17;;;;;;;12.50;7.65;;;11.70;86.90;;;;;;5035930;28;20021;-76
2021/12/13 02:47:48;;;;;;;16.27;7.70;;;11.70;86.90;;;;;;5036031;28;20048;-76
2021/12/13 02:50:28;;;;;;;15.25;8.77;;;11.70;86.80;;;;;;5042566;28;20037;-76
2021/12/13 02:52:54;;;;;;;13.57;8.02;;;11.70;86.90;;;;;;5034528;28;20125;-76
2021/12/13 02:55:28;;;;;;;15.88;8.82;;;11.70;86.70;;;;;;5036095;28;20029;-76
2021/12/13 02:57:56;;;;;;;14.43;8.48;;;11.70;86.80;;;;;;5035735;28;20052;-76
2021/12/13 03:00:27;;;;;;;17.63;9.35;;;11.70;87.00;;;;;;5035835;28;20028;-76
2021/12/13 03:02:58;;;;;;;17.63;9.88;;;11.70;87.00;;;;;;5034423;28;20661;-76
2021/12/13 03:05:35;;;;;;;17.15;9.45;;;11.70;87.00;;;;;;5035619;28;20092;-76
2021/12/13 03:08:19;;;;;;;19.40;11.32;;;11.70;87.10;;;;;;5055057;28;20065;-76
2021/12/13 03:10:49;;;;;;;14.40;9.05;;;11.70;87.30;;;;;;5051796;28;20025;-76
2021/12/13 03:13:17;;;;;;;18.55;9.48;;;11.60;87.20;;;;;;5035689;28;20562;-76
2021/12/13 03:15:48;;;;;;;17.92;9.10;;;11.60;87.50;;;;;;5035669;28;20091;-76
2021/12/13 03:18:36;;;;;;;19.13;10.30;;;11.60;87.40;;;;;;5035383;28;20025;-76
2021/12/13 03:21:22;;;;;;;19.20;9.57;;;11.60;87.30;;;;;;5034111;28;20025;-76
2021/12/13 03:24:08;;;;;;;17.30;10.20;;;11.60;87.10;;;;;;5033386;28;20034;-76
2021/12/13 03:27:00;;;;;;;15.45;9.93;;;11.60;87.20;;;;;;5035367;28;20053;-76
2021/12/13 03:29:56;;;;;;;16.90;10.48;;;11.60;87.40;;;;;;5035387;28;20128;-76
2021/12/13 03:32:22;;;;;;;19.05;11.35;;;11.50;87.70;;;;;;5035381;28;20026;-76
2021/12/13 03:35:21;;;;;;;16.08;9.68;;;11.50;87.50;;;;;;5051470;28;20021;-76
2021/12/13 03:37:55;;;;;;;20.02;9.10;;;11.50;87.50;;;;;;5049448;28;20120;-76
2021/12/13 03:40:21;;;;;;;18.90;11.20;;;11.40;87.40;;;;;;5035023;28;20030;-76
2021/12/13 03:42:52;;;;;;;18.52;10.55;;;11.40;87.70;;;;;;5034879;28;20041;-76
2021/12/13 03:45:19;;;;;;;;;;;11.40;87.90;;;;;;5034138;28;20056;-76
2021/12/13 03:47:50;;;;;;;16.13;7.60;;;11.40;87.50;;;;;;5035106;28;19912;-76
2021/12/13 03:50:22;;;;;;;20.02;10.85;;;11.50;87.30;;;;;;5033721;28;20033;-76
2021/12/13 03:52:52;;;;;;;18.63;9.90;;;11.60;87.30;;;;;;5035058;28;20032;-76
2021/12/13 03:55:23;;;;;;;17.65;9.93;;;11.50;87.10;;;;;;5046292;28;20103;-76
2021/12/13 03:57:52;;;;;;;16.40;9.30;;;11.40;87.10;;;;;;5033108;28;20511;-76
2021/12/13 04:00:22;;;;;;;18.17;9.52;;;11.50;87.00;;;;;;5033293;28;20586;-76
2021/12/13 04:02:49;;;;;;;17.98;10.02;;;11.50;87.00;;;;;;5046247;28;20065;-76
2021/12/13 04:05:18;;;;;;;19.27;10.68;;;11.50;86.90;;;;;;5067018;28;20025;-76
2021/12/13 04:07:48;;;;;;;19.10;9.77;;;11.50;87.10;;;;;;5034913;28;20068;-75
2021/12/13 04:10:24;;;;;;;19.50;10.07;;;11.50;87.30;;;;;;5034885;28;20740;-76
2021/12/13 04:12:54;;;;;;;16.90;8.68;;;11.50;86.80;;;;;;5066645;28;20037;-76
2021/12/13 04:15:30;;;;;;;19.15;10.02;;;11.40;87.10;;;;;;5034785;28;20112;-76
2021/12/13 04:18:11;;;;;;;14.32;9.07;;;11.40;87.30;;;;;;5066393;28;20037;-76
2021/12/13 04:20:39;;;;;;;17.00;9.10;;;11.40;87.00;;;;;;5049949;28;20060;-76
2021/12/13 04:23:16;;;;;;;16.33;8.32;;;11.40;86.80;;;;;;5034791;28;20029;-76
2021/12/13 04:25:45;;;;;;;18.02;9.50;;;11.40;86.70;;;;;;5033228;28;20026;-76
2021/12/13 04:28:13;;;;;;;16.02;9.43;;;11.30;86.90;;;;;;5034748;28;20025;-76
2021/12/13 04:30:43;;;;;;;15.50;8.52;;;11.30;86.70;;;;;;5034588;28;20033;-76
2021/12/13 04:33:26;;;;;;;14.32;9.60;;;11.30;87.00;;;;;;5034546;28;20078;-76
2021/12/13 04:35:57;;;;;;;15.18;8.60;;;11.30;86.60;;;;;;5042702;28;20044;-76
2021/12/13 04:38:31;;;;;;;19.27;8.95;;;11.30;86.70;;;;;;5034048;28;20530;-76
2021/12/13 04:40:57;;;;;;;16.10;9.55;;;11.40;86.50;;;;;;5034576;28;20029;-76
2021/12/13 04:43:23;;;;;;;19.05;9.20;;;11.40;86.40;;;;;;5033272;28;20022;-76
2021/12/13 04:45:57;;;;;;;16.70;9.00;;;11.30;86.50;;;;;;5034520;28;20028;-76
2021/12/13 04:48:27;;;;;;;15.75;8.75;;;11.30;86.50;;;;;;5034519;28;20106;-76
2021/12/13 04:51:16;;;;;;;14.38;8.68;;;11.30;86.50;;;;;;5034584;28;20045;-76
2021/12/13 04:53:46;;;;;;;19.77;9.93;;;11.30;86.20;;;;;;5032861;28;20116;-76
2021/12/13 04:56:19;;;;;;;17.88;9.60;;;11.30;86.50;;;;;;5033775;28;20025;-76
2021/12/13 04:58:48;;;;;;;18.17;9.35;;;11.30;85.70;;;;;;5034278;28;20041;-75
2021/12/13 05:01:15;;;;;;;16.02;8.60;;;11.30;86.00;;;;;;5032981;28;20448;-76
2021/12/13 05:03:45;;;;;;;14.23;8.60;;;11.20;86.00;;;;;;5033379;28;20037;-75
2021/12/13 05:06:17;;;;;;;13.27;7.78;;;11.30;86.40;;;;;;5036158;28;20034;-76
2021/12/13 05:08:50;;;;;;;18.35;9.02;;;11.20;85.90;;;;;;5037994;28;20506;-75
2021/12/13 05:11:17;;;;;;;15.68;8.52;;;11.20;86.10;;;;;;5036353;28;20063;-76
2021/12/13 05:13:51;;;;;;;13.82;8.10;;;11.20;86.00;;;;;;5037767;28;20026;-76
2021/12/13 05:16:26;;;;;;;14.35;8.13;;;11.10;86.10;;;;;;5037757;28;20029;-76
2021/12/13 05:18:54;;;;;;;17.13;8.50;;;11.10;86.50;;;;;;5037723;28;20034;-76
2021/12/13 05:21:36;;;;;;;14.88;8.35;;;11.10;86.50;;;;;;5037684;28;20026;-76
2021/12/13 05:24:09;;;;;;;15.70;9.52;;;11.10;86.30;;;;;;5037797;28;20029;-76
2021/12/13 05:26:37;;;;;;;14.85;7.88;;;11.10;86.20;;;;;;5037652;28;20025;-76
2021/12/13 05:29:06;;;;;;;17.00;8.23;;;11.10;86.10;;;;;;5037179;28;20454;-76
2021/12/13 05:31:32;;;;;;;18.05;10.18;;;11.10;86.10;;;;;;5037614;28;20018;-76
2021/12/13 05:34:05;;;;;;;17.98;9.77;;;11.00;86.10;;;;;;5071806;28;20054;-76
2021/12/13 05:36:34;;;;;;;16.65;9.35;;;10.90;86.10;;;;;;5046982;28;20021;-76
2021/12/13 05:39:15;;;;;;;16.75;7.88;;;10.90;86.10;;;;;;5037296;28;20026;-75
2021/12/13 05:41:50;;;;;;;13.63;6.60;;;10.90;86.30;;;;;;5040199;28;20087;-77
2021/12/13 05:44:27;;;;;;;14.27;8.38;;;10.80;86.40;;;;;;5056930;28;20021;-78
2021/12/13 05:46:54;;;;;;;20.45;8.50;;;10.90;86.30;;;;;;5037421;28;20630;-77
2021/12/13 06:05:52;;;;;;;16.67;7.55;;;9.70;89.30;;;;;;5133546;27;20993;-80
2021/12/13 06:08:28;;;;;;;13.77;8.15;;;9.70;89.60;;;;;;5107296;28;20474;-81
2021/12/13 06:11:08;;;;;;;17.63;8.13;;;9.90;89.30;;;;;;5113248;28;20040;-79
2021/12/13 06:13:40;;;;;;;13.07;6.32;;;10.20;88.90;;;;;;5132887;27;20432;-83
2021/12/13 06:16:06;;;;;;;17.67;8.52;;;10.30;88.00;;;;;;5134000;28;20075;-82
2021/12/13 06:19:07;;;;;;;13.60;8.23;;;10.50;87.60;;;;;;5110735;28;20615;-79
2021/12/13 06:21:48;;;;;;;16.30;7.22;;;10.60;87.50;;;;;;5116025;28;20028;-80
2021/12/13 06:24:13;;;;;;;;;;;10.70;86.50;;;;;;5120965;28;20493;-79
2021/12/13 06:26:45;;;;;;;11.80;5.20;;;10.80;86.50;;;;;;5126766;28;19908;-81
2021/12/13 06:29:11;;;;;;;13.73;7.07;;;10.80;86.30;;;;;;5132339;28;20111;-77
2021/12/13 06:31:41;;;;;;;13.57;8.02;;;10.70;86.60;;;;;;5106217;28;20058;-80
2021/12/13 06:34:10;;;;;;;12.20;6.30;;;10.70;86.50;;;;;;5093638;27;20043;-79
2021/12/13 06:36:42;;;;;;;15.80;7.70;;;10.70;86.40;;;;;;5104323;28;20050;-80
2021/12/13 06:39:14;;;;;;;13.43;6.68;;;10.70;86.40;;;;;;5111242;28;20043;-80
2021/12/13 06:41:50;;;;;;;22.00;8.65;;;10.70;86.20;;;;;;5112200;28;20031;-80
2021/12/13 06:44:26;;;;;;;17.52;8.80;;;10.70;86.10;;;;;;5111807;28;20020;-79
2021/12/13 06:47:08;;;;;;;15.90;7.93;;;10.70;86.30;;;;;;5111738;28;20039;-79
2021/12/13 06:49:44;;;;;;;11.23;6.82;;;10.70;86.30;;;;;;5111986;28;20035;-76
2021/12/13 06:52:12;;;;;;;10.95;5.70;;;10.60;85.90;;;;;;5101144;28;20023;-80
2021/12/13 06:54:49;;;;;;;13.98;6.72;;;10.70;85.90;;;;;;5130175;28;20031;-79
2021/12/13 06:57:30;;;;;;;16.55;8.18;;;10.70;86.20;;;;;;5111534;28;20028;-78
2021/12/13 06:59:59;;;;;;;14.00;6.75;;;10.60;86.10;;;;;;5111091;28;20103;-78
2021/12/13 07:02:48;;;;;;;13.65;7.05;;;10.70;86.20;;;;;;5111195;28;20098;-79
2021/12/13 07:05:45;;;;;;;12.98;7.93;;;10.60;86.00;;;;;;5110932;28;20069;-79
2021/12/13 07:08:21;;;;;;;13.95;7.88;;;10.70;86.20;;;;;;5098454;28;20044;-79
2021/12/13 07:10:53;;;;;;;18.30;7.95;;;10.60;86.00;;;;;;5111359;28;20028;-79
2021/12/13 07:13:33;;;;;;;12.48;6.30;;;10.60;85.80;;;;;;5111749;28;20103;-79
2021/12/13 07:16:16;;;;;;;11.85;6.85;;;10.50;85.70;;;;;;5104745;28;20031;-79
2021/12/13 07:18:47;;;;;;;14.85;6.90;;;10.60;86.00;;;;;;5079670;28;20028;-76
2021/12/13 07:21:18;;;;;;;13.68;7.00;;;10.50;85.80;;;;;;5097605;28;20024;-79
2021/12/13 07:23:56;;;;;;;13.80;6.45;;;10.60;86.20;;;;;;5098266;28;20024;-76
2021/12/13 07:26:49;;;;;;;15.13;7.85;;;10.60;85.60;;;;;;5097743;28;20148;-76
2021/12/13 07:29:38;;;;;;;15.52;8.43;;;10.60;86.10;;;;;;5094327;28;20079;-79
2021/12/13 07:32:09;;;;;;;15.93;8.35;;;10.60;86.00;;;;;;5086738;28;20158;-79
2021/12/13 07:35:13;;;;;;;16.50;8.13;;;10.60;85.70;;;;;;5110779;27;20023;-79
2021/12/13 07:37:42;;;;;;;14.07;7.47;;;10.60;85.70;;;;;;5084009;27;20044;-78
2021/12/13 07:40:28;;;;;;;13.63;6.20;;;10.60;85.80;;;;;;5097241;28;20502;-79
2021/12/13 07:43:35;;;;;;;17.40;7.97;;;10.50;85.80;;;;;;5097158;28;20379;-79
2021/12/13 07:46:33;;;;;;;15.38;7.90;;;10.40;86.00;;;;;;5015023;28;20064;-79
2021/12/13 07:49:05;;;;;;;19.83;8.15;;;10.30;86.40;;;;;;5015034;28;20029;-78
2021/12/13 07:51:39;;;;;;;14.98;7.82;;;10.30;86.30;;;;;;5074566;28;20032;-79
2021/12/13 07:54:09;;;;;;;13.32;7.90;;;10.30;86.60;;;;;;5097288;28;20024;-79
2021/12/13 07:56:35;;;;;;;13.00;6.32;;;10.30;86.10;;;;;;5078943;28;20016;-76
2021/12/13 07:59:15;;;;;;;16.13;7.97;;;10.30;86.50;;;;;;5097013;28;20047;-79
2021/12/13 08:01:51;;;;;;;15.95;7.30;;;10.40;86.10;;;;;;5097346;28;20450;-78
2021/12/13 08:04:33;;;;;;;16.23;8.65;;;10.30;85.90;;;;;;5097174;28;20105;-78
2021/12/13 08:07:30;;;;;;;14.27;7.07;;;10.30;86.30;;;;;;5096655;28;20028;-79
2021/12/13 08:10:08;;;;;;;13.27;6.80;;;10.40;86.30;;;;;;5097026;28;20363;-78
2021/12/13 08:12:47;;;;;;;13.98;7.22;;;10.40;85.60;;;;;;5096785;28;20049;-79
2021/12/13 08:15:20;;;;;;;15.30;7.78;;;10.40;85.50;;;;;;5096723;28;20020;-78
2021/12/13 08:18:10;;;;;;;14.85;7.15;;;10.40;85.60;;;;;;5096670;28;20150;-78
2021/12/13 08:20:46;;;;;;;14.10;6.90;;;10.50;85.30;;;;;;5069672;28;20119;-79
2021/12/13 08:23:20;;;;;;;12.45;6.10;;;10.40;85.20;;;;;;5096739;28;20028;-78
2021/12/13 08:25:49;;;;;;;10.25;5.82;;;10.30;85.40;;;;;;5096569;28;20026;-78
2021/12/13 08:28:19;;;;;;;10.30;5.63;;;10.40;85.20;;;;;;5095458;28;20114;-78
2021/12/13 08:30:51;;;;;;;7.95;4.80;;;10.40;85.20;;;;;;5096617;28;20024;-78
2021/12/13 08:33:18;;;;;;;11.30;5.90;;;10.40;84.70;;;;;;5078162;28;20119;-78
2021/12/13 08:35:48;;;;;;;9.57;5.45;;;10.40;85.20;;;;;;5096448;28;20194;-78
2021/12/13 08:38:51;;;;;;;9.93;5.90;;;10.50;84.70;;;;;;5096466;28;20036;-78
2021/12/13 08:41:31;;;;;;;8.00;4.90;;;10.50;84.70;;;;;;5083147;28;20030;-79
2021/12/13 08:44:27;;;;;;;9.75;5.45;;;10.50;84.50;;;;;;5096225;28;20042;-78
2021/12/13 08:46:56;;;;;;;7.10;4.45;;;10.40;84.40;;;;;;5096398;28;20036;-79
2021/12/13 08:49:21;;;;;;;6.55;3.88;;;10.40;84.10;;;;;;5096209;28;20028;-78
2021/12/13 08:52:03;;;;;;;7.97;5.40;;;10.30;84.50;;;;;;5096182;28;20035;-78
2021/12/13 08:54:53;;;;;;;9.65;5.10;;;10.30;84.70;;;;;;5077351;28;20043;-78
2021/12/13 08:57:31;;;;;;;;;;;10.30;84.40;;;;;;5096409;28;20024;-79
2021/12/13 08:59:58;;;;;;;6.38;4.00;;;10.50;84.50;;;;;;5096006;28;19907;-78
2021/12/13 09:02:37;;;;;;;8.45;4.93;;;10.50;83.60;;;;;;5077707;28;20078;-78
2021/12/13 09:05:17;;;;;;;7.88;4.25;;;10.60;83.80;;;;;;5095766;28;20048;-79
2021/12/13 09:07:55;;;;;;;7.65;4.25;;;10.70;83.50;;;;;;5095834;28;20120;-78
2021/12/13 09:10:34;;;;;;;8.18;4.32;;;10.70;83.20;;;;;;5095853;28;20067;-78
2021/12/13 09:12:59;;;;;;;6.93;4.32;;;10.70;83.50;;;;;;5095600;28;20455;-78
2021/12/13 09:15:31;;;;;;;8.23;4.60;;;10.80;82.90;;;;;;5095567;28;20012;-78
2021/12/13 09:17:58;;;;;;;7.20;4.57;;;10.80;83.10;;;;;;5095594;28;20081;-78
2021/12/13 09:20:43;;;;;;;7.05;4.22;;;10.80;82.50;;;;;;5095692;28;20046;-78
2021/12/13 09:23:21;;;;;;;7.35;4.40;;;10.80;82.80;;;;;;5095659;28;20035;-78
2021/12/13 09:25:54;;;;;;;6.38;3.85;;;10.80;82.90;;;;;;5095500;28;20122;-79
2021/12/13 09:28:24;;;;;;;6.40;3.80;;;10.80;82.50;;;;;;5095718;28;20059;-78
2021/12/13 09:30:50;;;;;;;;;;;10.80;83.00;;;;;;5077593;28;20110;-78
2021/12/13 09:33:33;;;;;;;9.15;3.70;;;10.80;82.40;;;;;;5077297;28;19938;-78
2021/12/13 09:36:22;;;;;;;4.68;3.28;;;10.80;82.30;;;;;;5132288;27;20507;-78
2021/12/13 09:38:58;;;;;;;8.18;4.40;;;10.80;82.00;;;;;;5136197;27;20023;-78
2021/12/13 09:41:27;;;;;;;6.38;4.30;;;10.80;82.40;;;;;;5126140;27;20489;-78
2021/12/13 09:44:15;;;;;;;7.13;4.28;;;10.80;82.10;;;;;;5095243;28;20032;-78
2021/12/13 09:46:48;;;;;;;5.68;3.38;;;10.90;82.30;;;;;;5095517;28;20044;-78
2021/12/13 09:49:20;;;;;;;7.10;3.83;;;10.90;82.20;;;;;;5095057;28;20027;-78
2021/12/13 09:51:52;;;;;;;5.13;2.90;;;10.90;82.30;;;;;;5095343;28;20394;-78
2021/12/13 09:54:22;;;;;;;4.50;3.10;;;10.80;82.10;;;;;;5095031;28;20032;-78
2021/12/13 09:56:51;;;;;;;4.75;3.30;;;10.80;82.50;;;;;;5094717;28;20038;-78
2021/12/13 09:59:28;;;;;;;5.87;2.70;;;10.80;82.40;;;;;;5095353;28;20028;-78
2021/12/13 10:01:56;;;;;;;5.10;3.42;;;10.80;82.10;;;;;;5095114;28;20098;-78
2021/12/13 10:04:35;;;;;;;6.93;3.00;;;10.90;82.00;;;;;;5094965;28;20071;-78
2021/12/13 10:07:12;;;;;;;3.63;2.38;;;10.80;82.20;;;;;;5095292;28;20092;-78
2021/12/13 10:09:49;;;;;;;4.65;3.30;;;11.00;81.90;;;;;;5094896;28;20054;-79
2021/12/13 10:12:24;;;;;;;5.88;3.33;;;11.00;82.10;;;;;;5094837;28;20032;-78
2021/12/13 10:14:55;;;;;;;5.07;2.90;;;11.00;81.80;;;;;;5094934;28;20515;-78
2021/12/13 10:17:26;;;;;;;4.68;2.78;;;11.10;81.50;;;;;;5094930;28;20028;-79
2021/12/13 10:19:57;;;;;;;3.33;2.35;;;11.00;81.40;;;;;;5095087;28;20016;-78
2021/12/13 10:22:26;;;;;;;2.80;2.25;;;11.00;80.90;;;;;;5076615;28;20022;-78
2021/12/13 10:24:59;;;;;;;3.92;2.72;;;10.90;80.80;;;;;;5076381;28;20028;-78
2021/12/13 10:27:25;;;;;;;4.30;2.75;;;11.10;81.20;;;;;;5076349;28;20393;-77
2021/12/13 10:29:56;;;;;;;4.47;2.60;;;10.90;80.80;;;;;;5095078;28;20031;-78
2021/12/13 10:32:28;;;;;;;3.80;2.13;;;11.00;81.10;;;;;;5094670;28;20034;-78
2021/12/13 10:35:17;;;;;;;3.40;2.28;;;10.80;80.80;;;;;;5112959;28;20072;-79
2021/12/13 10:37:57;;;;;;;2.75;2.13;;;10.90;80.80;;;;;;5095406;28;20036;-78
2021/12/13 10:40:26;;;;;;;3.22;2.03;;;10.80;81.30;;;;;;5094769;28;20054;-78
2021/12/13 10:43:01;;;;;;;4.68;2.97;;;10.80;80.70;;;;;;5094465;28;20028;-78
2021/12/13 10:45:32;;;;;;;4.80;2.75;;;10.80;81.00;;;;;;5076539;28;20040;-78
2021/12/13 10:48:02;;;;;;;3.05;2.33;;;10.80;81.10;;;;;;5094521;28;20072;-78
2021/12/13 10:50:45;;;;;;;2.50;2.15;;;10.80;81.10;;;;;;5094948;28;20020;-78
2021/12/13 10:53:14;;;;;;;4.68;2.88;;;10.80;80.90;;;;;;5098455;28;20031;-78
2021/12/13 10:55:46;;;;;;;3.17;2.58;;;10.90;81.30;;;;;;5098186;28;20028;-78
2021/12/13 10:58:23;;;;;;;4.63;2.25;;;10.80;81.10;;;;;;5098603;28;20028;-78
2021/12/13 11:00:59;;;;;;;2.75;2.05;;;10.90;81.00;;;;;;5098034;28;20486;-78
2021/12/13 11:03:28;;;;;;;3.40;2.55;;;10.80;80.70;;;;;;5098215;28;20111;-78
2021/12/13 11:05:55;;;;;;;4.63;3.13;;;10.80;80.60;;;;;;5097813;28;20058;-78
2021/12/13 11:08:22;;;;;;;4.13;2.40;;;10.90;80.80;;;;;;5098084;28;20399;-78
2021/12/13 11:10:54;;;;;;;4.30;2.65;;;10.80;81.00;;;;;;5097885;28;20107;-78
2021/12/13 11:13:23;;;;;;;3.15;2.22;;;10.80;81.30;;;;;;5098218;28;20085;-78
2021/12/13 11:15:53;;;;;;;4.07;2.90;;;10.70;81.40;;;;;;5098263;28;20024;-78
2021/12/13 11:18:27;;;;;;;3.42;2.58;;;10.70;81.20;;;;;;5098066;28;20035;-78
2021/12/13 11:20:56;;;;;;;4.72;2.78;;;10.80;81.20;;;;;;5097686;28;20151;-78
2021/12/13 11:23:22;;;;;;;6.60;2.85;;;10.80;81.20;;;;;;5079345;28;20077;-78
2021/12/13 11:25:54;;;;;;;4.22;3.25;;;10.90;80.80;;;;;;5098055;28;20031;-78
2021/12/13 11:28:21;;;;;;;3.78;2.55;;;10.90;80.80;;;;;;5079682;28;20047;-78
2021/12/13 11:30:51;;;;;;;3.92;2.85;;;10.90;80.80;;;;;;5097889;28;20084;-78
2021/12/13 11:33:39;;;;;;;2.63;2.35;;;10.80;80.90;;;;;;5097991;28;20109;-78
2021/12/13 11:36:08;;;;;;;4.80;2.97;;;10.80;80.90;;;;;;5116890;27;20505;-78
2021/12/13 11:38:54;;;;;;;4.20;2.33;;;10.70;81.20;;;;;;5138822;27;20179;-78
2021/12/13 11:41:35;;;;;;;3.75;3.13;;;10.70;81.30;;;;;;5079280;28;20032;-78
2021/12/13 11:44:25;;;;;;;4.90;3.60;;;10.80;81.00;;;;;;5097560;28;20077;-78
2021/12/13 11:47:22;;;;;;;4.32;3.20;;;10.80;81.10;;;;;;5107362;28;20062;-78
2021/12/13 11:49:48;;;;;;;5.57;3.88;;;10.80;80.90;;;;;;5058630;28;20055;-78
2021/12/13 11:52:37;;;;;;;3.92;2.97;;;10.80;81.00;;;;;;5097018;28;20031;-78
2021/12/13 11:55:29;;;;;;;4.32;3.03;;;10.80;80.90;;;;;;5097072;28;20028;-77
2021/12/13 11:58:27;;;;;;;5.00;3.75;;;10.80;81.00;;;;;;5097125;28;20027;-76
2021/12/13 12:01:32;;;;;;;4.82;3.03;;;10.80;82.00;;;;;;5097418;28;20066;-76
2021/12/13 12:04:07;;;;;;;5.22;3.15;;;10.60;81.60;;;;;;5078673;28;20052;-77
2021/12/13 12:07:04;;;;;;;4.18;3.53;;;10.70;81.80;;;;;;5097035;28;20390;-77
2021/12/13 12:09:45;;;;;;;5.47;3.50;;;10.70;81.60;;;;;;5096850;28;20032;-76
2021/12/13 12:12:26;;;;;;;4.88;2.97;;;10.70;81.30;;;;;;5096865;28;20039;-78
2021/12/13 12:15:00;;;;;;;5.32;3.50;;;10.70;81.40;;;;;;5078619;28;20039;-76
2021/12/13 12:17:28;;;;;;;3.92;2.85;;;10.60;81.70;;;;;;5096874;28;20062;-77
2021/12/13 12:19:54;;;;;;;5.20;3.72;;;10.60;81.80;;;;;;5096892;28;20024;-76
2021/12/13 12:22:22;;;;;;;6.30;3.60;;;10.60;81.80;;;;;;5096809;28;20108;-77
2021/12/13 12:24:55;;;;;;;5.18;3.28;;;10.60;81.70;;;;;;5078621;28;20490;-80
2021/12/13 12:27:28;;;;;;;6.00;3.70;;;10.70;81.30;;;;;;5095999;28;20059;-80
2021/12/13 12:29:58;;;;;;;6.30;4.25;;;10.60;81.50;;;;;;5096636;28;20511;-80
2021/12/13 12:32:31;;;;;;;7.87;4.73;;;10.60;82.10;;;;;;5077984;28;20055;-81
2021/12/13 12:35:11;;;;;;;6.25;4.65;;;10.70;81.80;;;;;;5115587;27;20027;-78
2021/12/13 12:37:59;;;;;;;4.78;3.75;;;10.70;81.40;;;;;;5115758;27;20040;-79
2021/12/13 12:41:03;;;;;;;5.82;4.03;;;10.80;81.60;;;;;;5096390;28;20047;-78
2021/12/13 12:43:35;;;;;;;4.72;3.58;;;10.90;81.30;;;;;;5095938;28;20028;-79
2021/12/13 12:46:06;;;;;;;5.85;3.83;;;10.80;80.80;;;;;;5096248;28;20035;-78
2021/12/13 12:48:39;;;;;;;5.40;3.60;;;10.80;80.90;;;;;;5096316;28;20474;-79
2021/12/13 12:51:20;;;;;;;7.07;4.07;;;10.80;80.80;;;;;;5095908;28;20501;-78
2021/12/13 12:54:05;;;;;;;6.57;4.10;;;10.70;81.50;;;;;;5078269;28;20118;-78
2021/12/13 12:56:36;;;;;;;6.10;4.10;;;10.80;81.90;;;;;;5077860;28;20089;-78
2021/12/13 12:59:06;;;;;;;5.85;4.00;;;10.80;81.80;;;;;;5095867;28;20024;-79
2021/12/13 13:01:35;;;;;;;5.47;3.80;;;10.90;81.10;;;;;;5096054;28;20497;-79
2021/12/13 13:04:18;;;;;;;6.63;4.22;;;10.90;80.70;;;;;;5095730;28;20048;-78
2021/12/13 13:07:02;;;;;;;5.57;3.70;;;11.00;80.60;;;;;;5095460;28;20020;-78
2021/12/13 13:09:54;;;;;;;5.68;3.83;;;11.00;80.60;;;;;;5095986;28;20085;-79
2021/12/13 13:12:36;;;;;;;5.30;3.85;;;11.00;80.40;;;;;;5095543;28;20062;-78
2021/12/13 13:15:08;;;;;;;6.70;4.22;;;11.10;80.50;;;;;;5095378;28;20481;-81
2021/12/13 13:17:38;;;;;;;7.55;4.30;;;11.00;80.50;;;;;;5087875;28;20096;-87
2021/12/13 13:20:22;;;;;;;7.32;5.35;;;10.70;81.20;;;;;;5095929;28;20024;-87
2021/12/13 13:22:51;;;;;;;5.57;4.30;;;10.60;81.10;;;;;;5094343;28;20050;-88
2021/12/13 13:25:24;;;;;;;5.95;3.88;;;10.70;81.30;;;;;;5093965;28;20025;-88
2021/12/13 13:27:50;;;;;;;8.98;4.78;;;10.70;81.20;;;;;;5095876;28;20031;-87
2021/12/13 13:30:19;;;;;;;6.40;4.30;;;10.50;82.00;;;;;;5077128;28;20023;-88
2021/12/13 13:32:45;;;;;;;8.10;4.38;;;10.60;81.70;;;;;;5077590;28;20032;-88
2021/12/13 13:35:12;;;;;;;7.72;4.50;;;10.60;81.80;;;;;;5104058;27;20030;-87
2021/12/13 13:37:42;;;;;;;7.18;4.35;;;10.60;81.70;;;;;;5118546;27;20027;-88
2021/12/13 13:40:12;;;;;;;7.65;4.82;;;10.70;81.50;;;;;;5114010;27;20360;-87
2021/12/13 13:43:01;;;;;;;6.30;4.95;;;10.70;81.70;;;;;;5095945;28;20038;-83
2021/12/13 13:45:28;;;;;;;9.25;6.15;;;10.60;81.40;;;;;;5095462;28;20024;-83
2021/12/13 13:47:58;;;;;;;10.40;5.88;;;10.50;82.20;;;;;;5095492;28;20035;-85
2021/12/13 13:50:26;;;;;;;10.43;6.95;;;10.50;81.90;;;;;;5095525;28;20397;-84
2021/12/13 13:52:55;;;;;;;10.27;6.93;;;10.50;81.90;;;;;;5077249;28;20501;-85
2021/12/13 13:55:28;;;;;;;15.70;7.63;;;10.50;81.90;;;;;;5076946;28;20046;-90
2021/12/13 13:58:04;;;;;;;13.30;7.75;;;10.60;81.50;;;;;;5095186;28;20020;-83